Time;durP1;ratioP1;P1;durP2;ratioP2;P2;SDS_P1;SDS_P2;PMS_P1;PMS_P2;Temp;Humidity;BMP_temperature;BMP_pressure;BME280_temperature;BME280_humidity;BME280_pressure;Samples;Min_cycle;Max_cycle;Signal;HPM_P1;HPM_P2
2023/01/20 00:01:21;;;;;;;43.40;21.00;;;0.80;1.00;;;;;;6186585;23;20165;-92
2023/01/20 00:03:49;;;;;;;39.73;21.67;;;0.80;1.00;;;;;;6186700;23;20174;-93
2023/01/20 00:06:16;;;;;;;39.87;21.27;;;0.80;99.90;;;;;;6186879;23;20176;-92
2023/01/20 00:08:43;;;;;;;40.03;19.47;;;0.80;1.00;;;;;;6187115;23;20170;-91
2023/01/20 00:11:12;;;;;;;38.53;20.83;;;0.70;1.00;;;;;;6186005;23;20172;-92
2023/01/20 00:13:39;;;;;;;33.83;19.33;;;0.70;1.00;;;;;;6186930;23;20203;-92
2023/01/20 00:16:08;;;;;;;35.83;19.07;;;0.70;1.00;;;;;;6186445;23;20652;-92
2023/01/20 00:18:37;;;;;;;40.20;20.20;;;0.70;1.00;;;;;;6186835;23;20652;-93
2023/01/20 00:21:05;;;;;;;37.23;19.23;;;0.70;1.00;;;;;;6186791;23;20170;-91
2023/01/20 00:23:32;;;;;;;35.00;18.73;;;0.70;1.00;;;;;;6186854;23;20178;-92
2023/01/20 00:25:59;;;;;;;40.40;20.30;;;0.70;1.00;;;;;;6186530;23;20184;-91
2023/01/20 00:28:25;;;;;;;38.60;19.70;;;0.70;1.00;;;;;;6187383;23;20172;-92
2023/01/20 00:30:52;;;;;;;38.13;19.37;;;0.70;1.00;;;;;;6186491;23;20218;-92
2023/01/20 00:33:19;;;;;;;41.13;20.90;;;0.70;1.00;;;;;;6186325;23;20189;-91
2023/01/20 00:35:47;;;;;;;36.43;20.37;;;0.70;1.00;;;;;;6186332;23;20692;-92
2023/01/20 00:38:14;;;;;;;32.87;19.63;;;0.70;1.00;;;;;;6186586;23;20250;-92
2023/01/20 00:40:41;;;;;;;44.70;22.43;;;0.80;1.00;;;;;;6186515;23;20652;-92
2023/01/20 00:43:08;;;;;;;46.20;23.70;;;0.80;1.00;;;;;;6186836;23;20173;-91
2023/01/20 00:45:35;;;;;;;46.87;23.23;;;0.80;1.00;;;;;;6186758;23;20169;-93
2023/01/20 00:48:01;;;;;;;40.37;20.70;;;0.80;1.00;;;;;;6185942;23;20202;-92
2023/01/20 00:50:28;;;;;;;33.63;19.20;;;0.90;1.00;;;;;;6186020;23;20176;-92
2023/01/20 00:52:56;;;;;;;44.57;22.67;;;0.80;1.00;;;;;;6186359;23;20190;-92
2023/01/20 00:55:23;;;;;;;41.57;23.23;;;0.80;1.00;;;;;;6186742;23;20181;-92
2023/01/20 00:57:50;;;;;;;44.50;23.50;;;0.80;1.00;;;;;;6186628;23;20172;-92
2023/01/20 01:00:18;;;;;;;38.80;20.87;;;0.80;1.00;;;;;;6186374;23;20164;-92
2023/01/20 01:02:45;;;;;;;39.70;22.37;;;0.80;1.00;;;;;;6186190;23;20625;-92
2023/01/20 01:05:12;;;;;;;40.30;21.00;;;0.80;1.00;;;;;;6186477;23;20194;-92
2023/01/20 01:07:39;;;;;;;39.20;21.97;;;0.80;1.00;;;;;;6186976;23;20175;-92
2023/01/20 01:10:08;;;;;;;38.03;21.47;;;0.80;1.00;;;;;;6186087;23;20174;-91
2023/01/20 01:12:35;;;;;;;41.63;22.47;;;0.80;1.00;;;;;;6186305;23;20179;-92
2023/01/20 01:15:02;;;;;;;40.63;23.23;;;0.80;1.00;;;;;;6185921;23;20194;-92
2023/01/20 01:17:29;;;;;;;39.53;22.03;;;0.90;1.00;;;;;;6186138;23;20174;-93
2023/01/20 01:19:56;;;;;;;35.77;21.37;;;0.90;1.00;;;;;;6186155;23;20170;-91
2023/01/20 01:22:22;;;;;;;48.87;23.20;;;0.90;99.90;;;;;;6186073;23;20171;-91
2023/01/20 01:24:49;;;;;;;42.23;22.33;;;0.80;99.90;;;;;;6186536;23;20173;-92
2023/01/20 01:27:17;;;;;;;43.57;22.17;;;0.70;99.90;;;;;;6186303;23;20171;-93
2023/01/20 01:29:44;;;;;;;42.63;21.67;;;0.70;1.00;;;;;;6186205;23;20508;-92
2023/01/20 01:32:11;;;;;;;42.70;22.17;;;0.70;1.00;;;;;;6186577;23;20176;-92
2023/01/20 01:34:38;;;;;;;43.00;23.43;;;0.60;1.00;;;;;;6186289;23;20190;-92
2023/01/20 01:37:05;;;;;;;44.43;23.30;;;0.60;1.00;;;;;;6185918;23;20252;-92
2023/01/20 01:39:31;;;;;;;46.47;25.37;;;0.60;1.00;;;;;;6186596;23;20193;-92
2023/01/20 01:41:58;;;;;;;49.27;25.83;;;0.60;1.00;;;;;;6186466;23;20511;-92
2023/01/20 01:44:27;;;;;;;49.47;26.80;;;0.60;1.00;;;;;;6185941;23;20169;-91
2023/01/20 01:46:54;;;;;;;45.20;24.43;;;0.60;1.00;;;;;;6186080;23;20201;-91
2023/01/20 01:49:24;;;;;;;52.97;26.77;;;0.60;1.00;;;;;;6186513;23;20184;-91
2023/01/20 01:51:56;;;;;;;47.53;23.67;;;0.60;1.00;;;;;;6186485;23;20240;-91
2023/01/20 01:54:27;;;;;;;47.33;24.50;;;0.70;99.90;;;;;;6185989;23;20174;-91
2023/01/20 01:56:54;;;;;;;47.87;25.27;;;0.70;99.90;;;;;;6186283;23;20210;-93
2023/01/20 01:59:21;;;;;;;44.80;24.47;;;0.70;99.90;;;;;;6186070;23;20502;-91
2023/01/20 02:01:51;;;;;;;44.83;23.17;;;0.70;99.90;;;;;;6185942;23;20185;-92
2023/01/20 02:04:20;;;;;;;43.40;23.43;;;0.70;99.90;;;;;;6186204;23;20235;-91
2023/01/20 02:06:51;;;;;;;45.47;23.17;;;0.70;99.90;;;;;;6186639;23;20226;-92
2023/01/20 02:09:18;;;;;;;42.13;22.00;;;0.70;99.90;;;;;;6186636;23;20156;-91
2023/01/20 02:11:49;;;;;;;46.70;22.70;;;0.70;99.90;;;;;;6185462;23;20181;-92
2023/01/20 02:14:17;;;;;;;41.90;22.70;;;0.70;99.90;;;;;;6185572;23;20187;-91
2023/01/20 02:16:56;;;;;;;45.30;24.10;;;0.70;99.90;;;;;;6186200;23;20171;-92
2023/01/20 02:20:08;;;;;;;48.03;23.90;;;0.70;99.90;;;;;;6186186;23;20158;-92
2023/01/20 02:22:44;;;;;;;44.13;23.33;;;0.70;99.90;;;;;;6066518;23;20156;-93
2023/01/20 02:25:55;;;;;;;42.70;23.50;;;0.70;1.00;;;;;;6066609;23;20153;-92
2023/01/20 02:28:53;;;;;;;43.10;22.27;;;0.60;99.90;;;;;;6066309;23;20196;-93
2023/01/20 02:31:44;;;;;;;46.17;23.23;;;0.70;99.90;;;;;;6066597;23;20182;-91
2023/01/20 02:34:16;;;;;;;42.60;23.87;;;0.70;99.90;;;;;;6066826;23;20203;-91
2023/01/20 02:36:47;;;;;;;45.37;24.27;;;0.70;84.10;;;;;;6068619;23;20241;-93
2023/01/20 02:39:20;;;;;;;47.60;24.53;;;0.70;10.00;;;;;;6067915;23;20169;-93
2023/01/20 02:41:55;;;;;;;41.40;22.93;;;0.80;1.00;;;;;;6067973;23;20170;-92
2023/01/20 02:44:27;;;;;;;43.77;22.77;;;0.70;1.00;;;;;;6068369;23;20153;-92
2023/01/20 02:47:00;;;;;;;43.10;23.13;;;0.80;1.00;;;;;;6067860;23;20200;-91
2023/01/20 02:49:31;;;;;;;42.60;22.43;;;0.80;1.00;;;;;;6067949;23;20168;-92
2023/01/20 02:52:03;;;;;;;51.47;23.73;;;0.80;1.00;;;;;;6068339;23;20173;-93
2023/01/20 02:54:33;;;;;;;40.80;21.87;;;0.80;1.00;;;;;;6186293;23;20515;-91
2023/01/20 02:57:02;;;;;;;48.37;24.43;;;0.80;1.00;;;;;;6187469;23;20176;-91
2023/01/20 02:59:32;;;;;;;44.33;23.20;;;0.80;1.00;;;;;;6187788;23;20169;-92
2023/01/20 03:02:04;;;;;;;41.20;22.73;;;0.80;1.00;;;;;;6188011;23;20156;-92
2023/01/20 03:04:36;;;;;;;43.90;22.33;;;0.90;1.00;;;;;;6187710;23;20154;-92
2023/01/20 03:07:04;;;;;;;44.00;22.97;;;0.90;1.00;;;;;;6187843;23;20166;-92
2023/01/20 03:09:38;;;;;;;45.37;23.53;;;0.90;1.00;;;;;;6187402;23;20175;-92
2023/01/20 03:12:11;;;;;;;53.17;26.13;;;0.90;1.00;;;;;;6187580;23;20156;-92
2023/01/20 03:14:38;;;;;;;47.70;23.73;;;1.00;1.00;;;;;;6187139;23;20183;-92
2023/01/20 03:17:06;;;;;;;47.43;27.33;;;1.00;1.00;;;;;;6187450;23;20171;-91
2023/01/20 03:19:33;;;;;;;48.00;25.60;;;0.90;1.00;;;;;;6187452;23;20176;-92
2023/01/20 03:22:00;;;;;;;53.93;27.30;;;0.90;1.00;;;;;;6187137;23;20180;-92
2023/01/20 03:24:32;;;;;;;46.43;24.77;;;0.90;1.00;;;;;;6187221;23;20171;-92
2023/01/20 03:26:59;;;;;;;47.70;24.37;;;0.90;1.00;;;;;;6187386;23;20158;-92
2023/01/20 03:29:26;;;;;;;54.77;26.20;;;1.00;1.00;;;;;;6187671;23;20171;-92
2023/01/20 03:31:57;;;;;;;50.57;25.63;;;0.90;1.00;;;;;;6187142;23;20176;-92
2023/01/20 03:34:27;;;;;;;42.90;23.37;;;1.00;1.00;;;;;;6187183;23;20236;-92
2023/01/20 03:36:54;;;;;;;46.07;24.30;;;1.00;1.00;;;;;;6187376;23;20176;-92
2023/01/20 03:39:23;;;;;;;46.27;23.83;;;1.00;1.00;;;;;;6187220;23;20170;-92
2023/01/20 03:42:00;;;;;;;44.10;23.53;;;1.00;1.00;;;;;;6186692;23;20180;-92
2023/01/20 03:44:41;;;;;;;39.10;22.17;;;1.00;1.00;;;;;;6187112;23;20481;-92
2023/01/20 03:47:16;;;;;;;44.07;22.87;;;1.00;1.00;;;;;;6186791;23;20195;-91
2023/01/20 03:49:51;;;;;;;42.10;23.00;;;1.00;1.00;;;;;;6187237;23;20159;-92
2023/01/20 03:52:23;;;;;;;44.47;24.00;;;0.90;1.00;;;;;;6187239;23;20158;-92
2023/01/20 03:54:54;;;;;;;46.73;24.67;;;0.90;1.00;;;;;;6186509;23;20188;-92
2023/01/20 03:57:26;;;;;;;46.97;24.03;;;0.90;1.00;;;;;;6187208;23;20162;-91
2023/01/20 03:59:53;;;;;;;48.00;23.87;;;1.00;27.50;;;;;;6187093;23;20155;-93
2023/01/20 04:02:22;;;;;;;47.40;25.27;;;1.00;1.00;;;;;;6187141;23;20198;-91
2023/01/20 04:04:51;;;;;;;44.33;24.40;;;1.00;1.00;;;;;;6186718;23;20667;-92
2023/01/20 04:07:21;;;;;;;47.53;24.03;;;1.00;1.00;;;;;;6186503;23;20180;-92
2023/01/20 04:09:52;;;;;;;43.90;23.77;;;1.00;1.00;;;;;;6186982;23;20626;-92
2023/01/20 04:12:18;;;;;;;40.77;22.60;;;1.00;1.00;;;;;;6186528;23;20623;-92
2023/01/20 04:14:45;;;;;;;41.10;22.47;;;1.00;1.00;;;;;;6186951;23;20201;-92
2023/01/20 04:17:13;;;;;;;44.53;24.17;;;1.00;1.00;;;;;;6187048;23;20171;-93
2023/01/20 04:19:40;;;;;;;54.10;28.10;;;1.00;1.00;;;;;;6187093;23;20180;-92
2023/01/20 04:22:17;;;;;;;63.83;32.83;;;1.00;1.00;;;;;;6186571;23;20170;-92
2023/01/20 04:24:50;;;;;;;49.73;27.67;;;1.00;1.00;;;;;;6187194;23;20156;-92
2023/01/20 04:27:17;;;;;;;43.37;25.53;;;1.00;1.00;;;;;;6186714;23;20153;-92
2023/01/20 04:29:43;;;;;;;44.70;22.90;;;1.10;1.00;;;;;;6186717;23;20169;-91
2023/01/20 04:32:11;;;;;;;46.20;23.73;;;1.10;1.00;;;;;;6186838;23;20198;-92
2023/01/20 04:34:38;;;;;;;45.73;22.63;;;1.10;1.00;;;;;;6186077;23;20277;-92
2023/01/20 04:37:05;;;;;;;42.10;22.90;;;1.10;1.00;;;;;;6186704;23;20512;-93
2023/01/20 04:39:33;;;;;;;39.73;22.07;;;1.20;1.00;;;;;;6186581;23;20178;-91
2023/01/20 04:42:00;;;;;;;39.93;21.53;;;1.10;1.00;;;;;;6186664;23;20182;-91
2023/01/20 04:44:27;;;;;;;39.80;21.17;;;1.10;1.00;;;;;;6186570;23;20167;-92
2023/01/20 04:46:56;;;;;;;41.13;22.67;;;1.10;1.00;;;;;;6186181;23;20196;-92
2023/01/20 04:49:23;;;;;;;47.10;27.70;;;1.10;1.00;;;;;;6186246;23;20643;-92
2023/01/20 04:51:50;;;;;;;72.63;38.87;;;1.10;1.00;;;;;;6186591;23;20189;-91
2023/01/20 04:54:17;;;;;;;54.20;32.17;;;1.10;1.00;;;;;;6186623;23;20192;-92
2023/01/20 04:56:45;;;;;;;58.13;32.10;;;1.20;1.00;;;;;;6186177;23;20171;-92
2023/01/20 04:59:12;;;;;;;54.17;29.43;;;1.20;1.00;;;;;;6186703;23;20176;-92
2023/01/20 05:01:39;;;;;;;42.07;23.30;;;1.20;1.00;;;;;;6186620;23;20177;-92
2023/01/20 05:04:06;;;;;;;44.37;24.90;;;1.30;1.00;;;;;;6186320;23;20172;-91
2023/01/20 05:06:32;;;;;;;43.57;24.23;;;1.30;1.00;;;;;;6186561;23;20500;-92
2023/01/20 05:08:59;;;;;;;44.17;24.73;;;1.30;1.00;;;;;;6186450;23;20174;-93
2023/01/20 05:11:26;;;;;;;44.73;24.70;;;1.30;1.00;;;;;;6186416;23;20177;-93
2023/01/20 05:13:54;;;;;;;42.50;24.43;;;1.30;1.00;;;;;;6186369;23;20178;-92
2023/01/20 05:16:24;;;;;;;42.63;24.17;;;1.30;1.00;;;;;;6186420;23;20180;-91
2023/01/20 05:18:51;;;;;;;39.43;22.20;;;1.40;1.00;;;;;;6186579;23;20211;-92
2023/01/20 05:21:18;;;;;;;53.10;26.40;;;1.40;1.00;;;;;;6186135;23;20179;-92
2023/01/20 05:23:45;;;;;;;38.17;21.50;;;1.40;1.00;;;;;;6186175;23;20171;-92
2023/01/20 05:26:11;;;;;;;45.10;22.97;;;1.40;1.00;;;;;;6186413;23;20177;-92
2023/01/20 05:28:38;;;;;;;46.03;23.50;;;1.40;1.00;;;;;;6186066;23;20171;-92
2023/01/20 05:31:06;;;;;;;44.93;22.57;;;1.40;1.00;;;;;;6186374;23;20206;-92
2023/01/20 05:33:34;;;;;;;43.30;21.77;;;1.40;1.00;;;;;;6186509;23;20177;-91
2023/01/20 05:36:04;;;;;;;50.40;23.83;;;1.40;1.00;;;;;;6185225;23;20661;-92
2023/01/20 05:38:31;;;;;;;42.27;21.80;;;1.40;1.00;;;;;;6186165;23;20496;-91
2023/01/20 05:41:01;;;;;;;42.97;22.10;;;1.50;1.00;;;;;;6186741;23;20177;-92
2023/01/20 05:43:28;;;;;;;56.27;25.67;;;1.40;1.00;;;;;;6186837;23;20168;-93
2023/01/20 05:45:55;;;;;;;54.83;26.90;;;1.50;1.00;;;;;;6186391;23;20171;-92
2023/01/20 05:48:24;;;;;;;58.93;28.77;;;1.50;1.00;;;;;;6186183;23;20202;-93
2023/01/20 05:50:50;;;;;;;59.60;29.07;;;1.50;1.00;;;;;;6186815;23;20173;-95
2023/01/20 05:53:17;;;;;;;60.97;30.27;;;1.50;1.00;;;;;;6186897;23;20178;-95
2023/01/20 05:55:45;;;;;;;67.57;33.27;;;1.60;1.00;;;;;;6186460;23;20200;-95
2023/01/20 05:58:12;;;;;;;80.43;40.03;;;1.50;99.90;;;;;;6186403;23;20185;-93
2023/01/20 06:00:39;;;;;;;79.40;38.03;;;1.40;99.90;;;;;;6192486;23;20178;-96
2023/01/20 06:03:06;;;;;;;61.30;29.90;;;1.30;1.00;;;;;;6195233;23;20167;-96
2023/01/20 06:05:34;;;;;;;62.23;31.53;;;1.30;1.00;;;;;;6201235;23;20173;-96
2023/01/20 06:08:01;;;;;;;81.00;37.87;;;1.30;1.00;;;;;;6192881;23;20175;-96
2023/01/20 06:10:27;;;;;;;91.17;41.17;;;1.30;1.00;;;;;;6194663;23;20257;-96
2023/01/20 06:12:55;;;;;;;76.23;33.97;;;1.20;1.00;;;;;;6189550;23;20181;-94
2023/01/20 06:15:23;;;;;;;59.37;30.07;;;1.20;18.80;;;;;;6188707;23;20190;-96
2023/01/20 06:17:49;;;;;;;64.70;32.13;;;1.20;51.80;;;;;;6188266;23;20698;-96
2023/01/20 06:20:17;;;;;;;63.40;30.20;;;1.20;99.90;;;;;;6188753;23;20170;-94
2023/01/20 06:22:45;;;;;;;51.93;25.50;;;1.30;96.70;;;;;;6188518;23;20171;-95
2023/01/20 06:25:12;;;;;;;49.40;25.23;;;1.30;40.20;;;;;;6188876;23;20240;-94
2023/01/20 06:27:39;;;;;;;46.13;24.27;;;1.30;1.00;;;;;;6188681;23;20483;-96
2023/01/20 06:30:07;;;;;;;48.23;23.60;;;1.30;1.00;;;;;;6186880;23;20171;-95
2023/01/20 06:32:34;;;;;;;43.97;24.80;;;1.30;1.00;;;;;;6188445;23;20258;-95
2023/01/20 06:35:01;;;;;;;45.97;24.27;;;1.30;1.00;;;;;;6188325;23;20197;-95
2023/01/20 06:37:27;;;;;;;46.47;24.57;;;1.40;1.00;;;;;;6188535;23;20175;-96
2023/01/20 06:39:55;;;;;;;51.53;26.67;;;1.40;1.00;;;;;;6187474;23;20203;-96
2023/01/20 06:42:22;;;;;;;59.27;29.77;;;1.40;1.00;;;;;;6187978;23;20491;-94
2023/01/20 06:44:49;;;;;;;55.80;26.83;;;1.40;1.00;;;;;;6188673;23;20167;-95
2023/01/20 06:47:16;;;;;;;65.30;30.13;;;1.50;1.00;;;;;;6187963;23;20292;-96
2023/01/20 06:49:43;;;;;;;62.67;31.27;;;1.50;1.00;;;;;;6188881;23;20176;-95
2023/01/20 06:52:09;;;;;;;59.60;29.47;;;1.50;1.00;;;;;;6188377;23;20178;-95
2023/01/20 06:54:36;;;;;;;55.37;26.93;;;1.50;1.00;;;;;;6188138;23;20170;-96
2023/01/20 06:57:04;;;;;;;55.60;30.67;;;1.50;1.00;;;;;;6188373;23;20177;-95
2023/01/20 06:59:31;;;;;;;57.33;32.07;;;1.50;1.00;;;;;;6188090;23;20706;-96
2023/01/20 07:01:58;;;;;;;54.10;29.30;;;1.60;1.00;;;;;;6188217;23;20235;-95
2023/01/20 07:04:24;;;;;;;58.10;30.03;;;1.60;1.00;;;;;;6188157;23;20183;-95
2023/01/20 07:06:51;;;;;;;52.13;27.77;;;1.60;1.00;;;;;;6188068;23;20174;-95
2023/01/20 07:09:18;;;;;;;52.87;27.60;;;1.60;1.00;;;;;;6188062;23;20617;-95
2023/01/20 07:11:45;;;;;;;69.97;36.67;;;1.60;1.00;;;;;;6188577;23;20194;-96
2023/01/20 07:14:13;;;;;;;70.20;34.10;;;1.60;1.00;;;;;;6188435;23;20176;-95
2023/01/20 07:16:40;;;;;;;58.70;30.70;;;1.60;1.00;;;;;;6188166;23;20192;-96
2023/01/20 07:19:07;;;;;;;55.43;27.03;;;1.50;1.00;;;;;;6188224;23;20165;-96
2023/01/20 07:21:33;;;;;;;63.40;22.87;;;1.50;1.00;;;;;;6188317;23;20178;-95
2023/01/20 07:24:01;;;;;;;49.73;20.70;;;1.50;1.00;;;;;;6187996;23;20177;-95
2023/01/20 07:26:28;;;;;;;46.50;20.80;;;1.40;13.50;;;;;;6188139;23;20172;-95
2023/01/20 07:28:55;;;;;;;55.03;20.33;;;1.40;99.90;;;;;;6188056;23;20244;-94
2023/01/20 07:31:24;;;;;;;67.57;20.73;;;1.40;99.90;;;;;;6188326;23;20274;-96
2023/01/20 07:33:51;;;;;;;52.57;19.70;;;1.40;99.90;;;;;;6188480;23;20260;-95
2023/01/20 07:36:18;;;;;;;40.63;17.40;;;1.30;99.90;;;;;;6188411;23;20194;-93
2023/01/20 07:38:48;;;;;;;47.50;16.63;;;1.30;1.00;;;;;;6188215;23;20170;-94
2023/01/20 07:41:15;;;;;;;55.87;16.70;;;1.30;1.00;;;;;;6187897;23;20202;-96
2023/01/20 07:43:42;;;;;;;54.70;18.53;;;1.30;1.00;;;;;;6187602;23;20171;-95
2023/01/20 07:46:09;;;;;;;61.07;17.47;;;1.40;1.00;;;;;;6187727;23;20174;-95
2023/01/20 07:48:38;;;;;;;66.07;15.53;;;1.40;1.00;;;;;;6187950;23;20589;-96
2023/01/20 07:51:07;;;;;;;60.23;18.43;;;1.40;1.00;;;;;;6187985;23;20179;-95
2023/01/20 07:53:36;;;;;;;54.47;20.43;;;1.40;1.00;;;;;;6188233;23;20231;-96
2023/01/20 07:56:04;;;;;;;57.70;17.47;;;1.40;1.00;;;;;;6188143;23;20218;-96
2023/01/20 07:58:31;;;;;;;71.27;19.43;;;1.50;1.00;;;;;;6187770;23;20177;-96
2023/01/20 08:00:57;;;;;;;58.13;22.67;;;1.50;1.00;;;;;;6187582;23;20184;-96
2023/01/20 08:03:25;;;;;;;47.10;13.20;;;1.60;1.00;;;;;;6186884;23;20609;-95
2023/01/20 08:05:53;;;;;;;150.13;28.77;;;1.60;1.00;;;;;;6188043;23;20503;-95
2023/01/20 08:08:20;;;;;;;227.53;35.17;;;1.70;1.00;;;;;;6187392;23;20176;-96
2023/01/20 08:10:53;;;;;;;149.67;36.37;;;1.70;1.00;;;;;;6188120;23;20195;-96
2023/01/20 08:13:20;;;;;;;164.27;35.10;;;1.80;1.00;;;;;;6188216;23;20162;-96
2023/01/20 08:15:47;;;;;;;163.40;28.03;;;1.80;1.00;;;;;;6187642;23;20721;-96
2023/01/20 08:18:13;;;;;;;149.50;26.87;;;1.80;99.90;;;;;;6188204;23;20195;-95
2023/01/20 08:20:40;;;;;;;199.70;61.80;;;1.80;99.90;;;;;;6188079;23;20566;-96
2023/01/20 08:23:10;;;;;;;86.83;18.23;;;1.70;99.90;;;;;;6188237;23;20173;-95
2023/01/20 08:25:36;;;;;;;83.23;21.77;;;1.80;1.00;;;;;;6188119;23;20247;-96
2023/01/20 08:28:03;;;;;;;77.50;11.53;;;1.80;1.00;;;;;;6187766;23;20164;-96
2023/01/20 08:30:30;;;;;;;110.40;23.73;;;1.80;1.00;;;;;;6188167;23;20173;-95
2023/01/20 08:32:57;;;;;;;157.37;16.03;;;1.80;99.90;;;;;;6188190;23;20176;-96
2023/01/20 08:35:24;;;;;;;81.60;15.73;;;1.80;99.90;;;;;;6187937;23;20202;-95
2023/01/20 08:37:51;;;;;;;66.40;17.83;;;1.70;99.90;;;;;;6188228;23;20176;-96
2023/01/20 08:40:19;;;;;;;103.23;20.00;;;1.80;1.00;;;;;;6188929;23;20254;-96
2023/01/20 08:42:46;;;;;;;138.00;21.73;;;1.80;1.00;;;;;;6188721;23;20171;-95
2023/01/20 08:45:13;;;;;;;106.87;14.87;;;1.80;99.90;;;;;;6188009;23;20192;-96
2023/01/20 08:47:44;;;;;;;123.93;23.47;;;1.80;99.90;;;;;;6188074;23;20197;-96
2023/01/20 08:50:13;;;;;;;256.90;68.67;;;1.80;99.90;;;;;;6188352;23;20167;-96
2023/01/20 08:52:40;;;;;;;160.30;29.27;;;1.80;99.90;;;;;;6188318;23;20174;-96
2023/01/20 08:55:08;;;;;;;97.77;17.83;;;1.80;1.00;;;;;;6189017;23;20238;-96
2023/01/20 08:57:36;;;;;;;160.23;22.70;;;1.80;1.00;;;;;;6189117;23;20558;-96
2023/01/20 09:00:05;;;;;;;128.80;21.03;;;1.90;1.00;;;;;;6188516;23;20667;-96
2023/01/20 09:02:32;;;;;;;136.23;16.27;;;1.90;99.90;;;;;;6189570;23;20250;-96
2023/01/20 09:04:59;;;;;;;115.70;15.87;;;2.00;99.90;;;;;;6190326;23;20175;-96
2023/01/20 09:07:26;;;;;;;132.90;15.53;;;1.90;62.00;;;;;;6190748;23;20166;-96
2023/01/20 09:09:53;;;;;;;97.60;26.83;;;1.90;1.00;;;;;;6190753;23;20181;-96
2023/01/20 09:12:19;;;;;;;183.43;53.80;;;1.80;99.90;;;;;;6190953;23;20182;-96
2023/01/20 09:14:47;;;;;;;122.17;36.53;;;1.90;1.00;;;;;;6192484;23;20257;-96
2023/01/20 09:17:14;;;;;;;134.30;26.80;;;1.90;1.00;;;;;;6193292;23;20202;-96
2023/01/20 09:19:41;;;;;;;84.67;19.33;;;1.90;99.90;;;;;;6195937;23;20176;-96
2023/01/20 09:22:08;;;;;;;91.27;19.90;;;2.00;99.90;;;;;;6195268;23;20169;-96
2023/01/20 09:24:35;;;;;;;117.27;15.70;;;2.10;99.90;;;;;;6192714;23;20179;-96
2023/01/20 09:27:01;;;;;;;99.07;16.13;;;2.10;99.90;;;;;;6192453;23;20176;-96
2023/01/20 09:29:28;;;;;;;106.13;17.47;;;2.10;1.00;;;;;;6191971;23;20182;-96
2023/01/20 09:31:57;;;;;;;116.90;27.07;;;2.10;99.90;;;;;;6194280;23;20176;-95
2023/01/20 09:34:26;;;;;;;150.07;16.07;;;2.20;99.90;;;;;;6194620;23;20216;-96
2023/01/20 09:36:54;;;;;;;115.60;14.77;;;2.20;99.90;;;;;;6196242;23;20217;-96
2023/01/20 09:45:21;;;;;;;122.27;17.97;;;2.30;1.00;;;;;;6197024;23;20152;-96
2023/01/20 09:47:50;;;;;;;68.13;14.90;;;2.20;1.00;;;;;;6196922;23;20202;-96
2023/01/20 09:53:39;;;;;;;101.20;12.77;;;2.20;1.00;;;;;;6195911;23;20228;-96
2023/01/20 09:56:11;;;;;;;128.10;15.00;;;2.10;1.00;;;;;;6195918;23;20193;-96
2023/01/20 09:58:44;;;;;;;108.10;12.37;;;2.10;7.30;;;;;;6196222;23;20235;-96
2023/01/20 10:01:16;;;;;;;119.93;14.33;;;2.20;74.40;;;;;;6195197;23;20152;-96
2023/01/20 10:03:52;;;;;;;80.57;11.17;;;2.30;35.80;;;;;;6196247;23;20176;-96
2023/01/20 10:06:28;;;;;;;77.83;10.80;;;2.30;1.00;;;;;;6196444;23;20162;-95
2023/01/20 10:08:59;;;;;;;46.20;9.93;;;2.20;1.00;;;;;;6193600;23;20164;-96
2023/01/20 10:11:29;;;;;;;64.20;11.10;;;2.20;1.00;;;;;;6192696;23;20169;-96
2023/01/20 10:14:05;;;;;;;56.63;10.00;;;2.10;1.00;;;;;;6192204;23;20150;-96
2023/01/20 10:16:40;;;;;;;81.30;11.13;;;2.00;99.90;;;;;;6192591;23;20186;-96
2023/01/20 10:19:15;;;;;;;58.73;10.13;;;1.90;1.00;;;;;;6192585;23;20597;-96
2023/01/20 10:21:45;;;;;;;64.03;11.00;;;1.80;1.00;;;;;;6192384;23;20165;-96
2023/01/20 10:24:18;;;;;;;61.33;11.03;;;1.80;1.00;;;;;;6192435;23;20170;-96
2023/01/20 10:26:52;;;;;;;71.33;11.10;;;1.80;1.00;;;;;;6192446;23;20166;-95
2023/01/20 10:29:28;;;;;;;63.97;11.60;;;1.80;1.00;;;;;;6193374;23;20192;-96
2023/01/20 10:32:00;;;;;;;70.30;11.07;;;1.80;1.00;;;;;;6192008;23;20163;-96
2023/01/20 10:34:38;;;;;;;51.63;12.40;;;1.80;1.00;;;;;;6192565;23;20164;-96
2023/01/20 10:37:09;;;;;;;81.60;12.20;;;1.80;1.00;;;;;;6191955;23;20179;-96
2023/01/20 10:39:42;;;;;;;87.07;11.97;;;1.80;1.00;;;;;;6192483;23;20185;-95
2023/01/20 10:42:15;;;;;;;65.67;12.17;;;1.80;1.00;;;;;;6192455;23;20157;-96
2023/01/20 10:44:43;;;;;;;65.87;11.43;;;1.90;1.00;;;;;;6192224;23;20163;-96
2023/01/20 10:47:17;;;;;;;100.53;13.20;;;2.00;1.00;;;;;;6192537;23;20193;-96
2023/01/20 10:50:19;;;;;;;61.13;12.80;;;2.10;1.00;;;;;;6193185;23;20194;-96
2023/01/20 10:53:09;;;;;;;68.03;12.30;;;2.30;1.00;;;;;;6191619;23;20252;-95
2023/01/20 10:55:49;;;;;;;66.30;11.27;;;2.30;99.90;;;;;;6191105;23;20157;-96
2023/01/20 10:58:22;;;;;;;56.20;10.93;;;2.40;99.90;;;;;;6191708;23;20176;-96
2023/01/20 11:00:50;;;;;;;41.97;9.83;;;2.40;1.00;;;;;;6191453;23;20158;-96
2023/01/20 11:03:20;;;;;;;42.83;12.50;;;2.20;1.00;;;;;;6191759;23;20164;-96
2023/01/20 11:05:50;;;;;;;44.40;11.03;;;2.10;1.00;;;;;;6191680;23;20183;-95
2023/01/20 11:08:22;;;;;;;65.17;12.43;;;2.00;1.00;;;;;;6191199;23;20179;-96
2023/01/20 11:10:53;;;;;;;46.53;11.87;;;1.90;20.30;;;;;;6190075;23;20162;-96
2023/01/20 11:13:21;;;;;;;58.60;11.07;;;1.80;99.90;;;;;;6190822;23;20529;-96
2023/01/20 11:15:50;;;;;;;40.77;11.97;;;1.80;99.90;;;;;;6190104;23;20204;-95
2023/01/20 11:18:23;;;;;;;49.33;12.03;;;1.80;99.90;;;;;;6190626;23;20171;-96
2023/01/20 11:20:54;;;;;;;60.90;12.77;;;1.70;99.90;;;;;;6190747;23;20172;-96
2023/01/20 11:23:25;;;;;;;55.03;12.13;;;1.70;99.90;;;;;;6189463;23;20172;-96
2023/01/20 11:25:57;;;;;;;56.10;15.10;;;1.70;99.90;;;;;;6190486;23;20156;-95
2023/01/20 11:28:24;;;;;;;61.37;19.67;;;1.70;99.90;;;;;;6190070;23;20176;-95
2023/01/20 11:30:53;;;;;;;39.60;13.37;;;1.70;1.00;;;;;;6190261;23;20242;-95
2023/01/20 11:33:22;;;;;;;50.13;16.90;;;1.80;1.00;;;;;;6189959;23;20194;-96
2023/01/20 11:36:02;;;;;;;46.90;14.27;;;1.80;1.00;;;;;;6189909;23;20167;-96
2023/01/20 11:38:31;;;;;;;47.47;12.27;;;1.90;1.00;;;;;;6191263;23;20163;-96
2023/01/20 11:40:58;;;;;;;38.17;10.17;;;2.00;1.00;;;;;;6190605;23;20169;-96
2023/01/20 11:43:30;;;;;;;34.60;11.17;;;2.00;99.90;;;;;;6189674;23;20190;-96
2023/01/20 11:46:11;;;;;;;64.47;12.33;;;2.00;1.00;;;;;;6190187;23;20334;-96
2023/01/20 11:48:38;;;;;;;45.53;14.00;;;1.90;99.90;;;;;;6190282;23;20157;-96
2023/01/20 11:51:21;;;;;;;45.03;12.40;;;1.90;99.90;;;;;;6190533;23;20174;-96
2023/01/20 11:53:48;;;;;;;45.03;13.40;;;2.00;99.90;;;;;;6190304;23;20163;-96
2023/01/20 11:56:19;;;;;;;39.60;12.83;;;2.10;99.90;;;;;;6190098;23;20181;-95
2023/01/20 11:58:53;;;;;;;103.03;39.00;;;2.10;99.90;;;;;;6190357;23;20156;-96
2023/01/20 12:01:23;;;;;;;55.30;19.60;;;2.10;1.00;;;;;;6190382;23;20176;-96
2023/01/20 12:04:27;;;;;;;45.47;13.10;;;2.10;1.00;;;;;;6190978;23;20174;-96
2023/01/20 12:07:00;;;;;;;47.93;17.43;;;2.00;28.90;;;;;;6184072;23;20173;-96
2023/01/20 12:09:33;;;;;;;56.20;19.43;;;2.00;1.00;;;;;;6190225;23;20160;-96
2023/01/20 12:12:04;;;;;;;80.93;24.93;;;2.00;1.00;;;;;;6189603;23;20161;-95
2023/01/20 12:14:34;;;;;;;61.70;22.37;;;1.90;1.00;;;;;;6189579;23;20158;-95
2023/01/20 12:17:14;;;;;;;34.57;15.17;;;1.90;84.70;;;;;;6189711;23;20200;-96
2023/01/20 12:19:53;;;;;;;37.63;13.43;;;1.90;99.90;;;;;;6189185;23;20174;-96
2023/01/20 12:22:27;;;;;;;45.33;15.07;;;2.00;99.90;;;;;;6188852;23;20168;-96
2023/01/20 12:25:09;;;;;;;37.90;13.17;;;2.00;99.90;;;;;;6189147;23;20171;-96
2023/01/20 12:27:43;;;;;;;25.97;9.83;;;2.10;99.90;;;;;;6189550;23;20648;-96
2023/01/20 12:30:28;;;;;;;35.27;11.93;;;2.00;1.00;;;;;;6188380;23;20211;-96
2023/01/20 12:32:55;;;;;;;31.80;12.63;;;1.90;1.00;;;;;;6189203;23;20550;-95
2023/01/20 12:35:26;;;;;;;40.47;13.63;;;1.90;1.00;;;;;;6188859;23;20191;-96
2023/01/20 12:37:57;;;;;;;45.80;13.43;;;1.80;99.90;;;;;;6188243;23;20187;-96
2023/01/20 12:40:35;;;;;;;54.93;18.00;;;1.80;86.10;;;;;;6188334;23;20179;-95
2023/01/20 12:43:27;;;;;;;44.27;15.53;;;1.70;1.00;;;;;;6188909;23;20189;-95
2023/01/20 12:46:13;;;;;;;56.67;12.33;;;1.60;14.60;;;;;;6189183;23;20242;-96
2023/01/20 12:48:51;;;;;;;57.03;19.03;;;1.50;99.90;;;;;;6189439;23;20185;-96
2023/01/20 12:51:36;;;;;;;62.10;18.30;;;1.50;99.90;;;;;;6189330;23;20248;-96
2023/01/20 12:54:49;;;;;;;48.47;13.93;;;1.50;99.90;;;;;;6189889;23;20187;-95
2023/01/20 12:57:25;;;;;;;102.20;32.17;;;1.60;1.00;;;;;;6186099;23;20588;-96
2023/01/20 13:00:09;;;;;;;82.13;22.20;;;1.60;1.00;;;;;;6191184;23;20160;-96
2023/01/20 13:03:05;;;;;;;99.23;30.93;;;1.70;1.00;;;;;;6191990;23;20629;-96
2023/01/20 13:06:01;;;;;;;69.60;13.80;;;1.70;1.00;;;;;;6191619;23;20165;-96
2023/01/20 13:08:36;;;;;;;83.83;22.00;;;1.80;99.90;;;;;;6190416;23;20160;-95